Time;durP1;ratioP1;P1;durP2;ratioP2;P2;SDS_P1;SDS_P2;PMS_P1;PMS_P2;Temp;Humidity;BMP_temperature;BMP_pressure;BME280_temperature;BME280_humidity;BME280_pressure;Samples;Min_cycle;Max_cycle;Signal;HPM_P1;HPM_P2
2021/03/29 00:01:26;;;;;;;9.15;3.10;;;;;;;10.50;59.34;101932.83;113156;1209;64722;-78
2021/03/29 00:03:54;;;;;;;8.20;2.65;;;;;;;10.52;58.97;101932.66;113158;1209;64406;-79
2021/03/29 00:06:22;;;;;;;6.30;2.85;;;;;;;10.52;59.52;101935.31;113297;1209;64307;-79
2021/03/29 00:08:50;;;;;;;8.93;3.03;;;;;;;10.50;58.64;101943.44;113222;1209;64391;-79
2021/03/29 00:11:17;;;;;;;9.55;2.45;;;;;;;10.49;59.36;101931.14;113170;1209;65681;-78
2021/03/29 00:13:46;;;;;;;7.05;2.05;;;;;;;10.47;59.16;101935.75;113162;1209;64378;-78
2021/03/29 00:16:14;;;;;;;11.30;3.03;;;;;;;10.43;59.16;101929.06;113495;1209;64374;-79
2021/03/29 00:18:41;;;;;;;8.23;3.23;;;;;;;10.40;59.50;101921.41;113399;1209;64336;-81
2021/03/29 00:21:09;;;;;;;10.30;2.83;;;;;;;10.36;59.82;101925.31;113571;1209;64378;-81
2021/03/29 00:23:37;;;;;;;10.20;3.30;;;;;;;10.32;59.62;101918.63;113407;1209;64406;-80
2021/03/29 00:26:07;;;;;;;10.70;3.10;;;;;;;10.32;59.35;101921.28;113220;1209;64383;-80
2021/03/29 00:28:34;;;;;;;11.50;3.10;;;;;;;10.27;59.68;101926.16;113177;1209;64420;-80
2021/03/29 00:31:05;;;;;;;8.83;2.93;;;;;;;10.23;59.57;101930.06;113255;1209;64483;-81
2021/03/29 00:33:34;;;;;;;7.90;2.17;;;;;;;10.20;59.81;101925.89;113436;1209;64355;-81
2021/03/29 00:36:01;;;;;;;10.97;2.70;;;;;;;10.18;59.97;101917.24;113395;1209;64803;-81
2021/03/29 00:38:29;;;;;;;5.35;2.40;;;;;;;10.16;60.31;101922.67;113201;1209;64380;-80
2021/03/29 00:41:00;;;;;;;9.67;3.13;;;;;;;10.13;59.58;101925.59;113225;1209;64416;-81
2021/03/29 00:43:35;;;;;;;9.27;3.13;;;;;;;10.09;60.78;101924.20;113363;1209;64416;-81
2021/03/29 00:46:05;;;;;;;7.67;2.60;;;;;;;10.06;60.66;101916.55;113244;1209;63108;-82
2021/03/29 00:48:34;;;;;;;10.37;2.47;;;;;;;10.05;59.98;101927.28;113384;1209;64454;-81
2021/03/29 00:51:14;;;;;;;10.93;3.33;;;;;;;10.06;59.87;101919.20;113220;1209;64403;-81
2021/03/29 00:53:48;;;;;;;6.90;2.63;;;;;;;10.06;60.28;101926.32;113185;1209;64374;-81
2021/03/29 00:56:15;;;;;;;8.57;2.57;;;;;;;10.04;60.51;101930.92;113201;1209;64384;-81
2021/03/29 00:58:44;;;;;;;12.10;3.50;;;;;;;10.03;60.32;101923.94;113243;1209;64358;-82
2021/03/29 01:01:27;;;;;;;8.07;2.80;;;;;;;10.05;60.68;101925.49;113199;1209;64380;-81
2021/03/29 01:03:58;;;;;;;7.97;3.43;;;;;;;10.06;60.49;101918.37;113271;1207;64406;-79
2021/03/29 01:06:28;;;;;;;6.45;2.60;;;;;;;10.09;60.73;101926.03;113210;1209;64483;-81
2021/03/29 01:09:00;;;;;;;11.93;3.60;;;;;;;10.12;60.69;101917.80;113381;1209;64458;-81
2021/03/29 01:11:29;;;;;;;9.73;2.80;;;;;;;10.18;59.63;101922.55;113191;1209;64401;-81
2021/03/29 01:14:07;;;;;;;6.55;2.75;;;;;;;10.20;59.71;101916.11;113442;1209;64358;-81
2021/03/29 01:16:41;;;;;;;8.65;2.60;;;;;;;10.22;59.78;101918.60;113091;1209;64372;-80
2021/03/29 01:19:15;;;;;;;7.83;2.65;;;;;;;10.25;60.18;101912.20;113206;1209;64403;-81
2021/03/29 01:21:59;;;;;;;12.57;2.73;;;;;;;10.26;59.98;101916.51;113357;1209;64839;-81
2021/03/29 01:24:51;;;;;;;11.97;2.43;;;;;;;10.27;59.90;101905.77;113156;1209;64493;-82
2021/03/29 01:27:21;;;;;;;9.80;2.87;;;;;;;10.28;59.39;101907.42;113257;1209;64416;-80
2021/03/29 01:29:49;;;;;;;10.73;2.40;;;;;;;10.31;59.92;101906.36;113141;1209;64364;-79
2021/03/29 01:32:17;;;;;;;11.17;2.70;;;;;;;10.31;59.65;101904.53;113194;1209;64416;-80
2021/03/29 01:34:45;;;;;;;10.80;2.97;;;;;;;10.34;58.91;101906.06;113134;1209;65588;-80
2021/03/29 01:37:12;;;;;;;9.73;3.27;;;;;;;10.37;59.24;101905.76;113180;1209;64361;-80
2021/03/29 01:39:42;;;;;;;10.80;2.70;;;;;;;10.39;59.25;101909.96;113336;1209;64477;-80
2021/03/29 01:42:11;;;;;;;3.30;1.70;;;;;;;10.42;59.49;101914.14;113263;1209;64419;-78
2021/03/29 01:44:38;;;;;;;5.05;2.30;;;;;;;10.43;58.91;101915.80;113130;1209;64567;-80
2021/03/29 01:47:07;;;;;;;6.13;2.40;;;;;;;10.46;58.60;101910.22;113718;1209;64457;-81
2021/03/29 01:49:35;;;;;;;6.20;2.90;;;;;;;10.50;58.87;101916.08;113956;1209;64407;-82
2021/03/29 01:52:04;;;;;;;14.23;3.53;;;;;;;10.52;58.98;101914.95;113196;1209;64342;-81
2021/03/29 01:54:36;;;;;;;8.73;2.80;;;;;;;10.54;58.69;101905.03;113265;1209;64483;-81
2021/03/29 01:57:09;;;;;;;8.60;2.00;;;;;;;10.55;58.42;101896.08;113168;1209;64538;-79
2021/03/29 01:59:37;;;;;;;9.90;3.20;;;;;;;10.57;58.31;101902.07;113194;1209;64439;-80
2021/03/29 02:02:05;;;;;;;9.15;3.20;;;;;;;10.57;58.66;101896.77;113236;1209;64470;-80
2021/03/29 02:04:33;;;;;;;6.27;2.33;;;;;;;10.57;58.59;101901.25;113124;1209;64362;-81
2021/03/29 02:07:02;;;;;;;7.50;2.80;;;;;;;10.57;58.84;101899.42;113227;1209;64364;-81
2021/03/29 02:09:29;;;;;;;8.43;3.93;;;;;;;10.55;59.03;101888.11;113142;1209;64445;-80
2021/03/29 02:11:57;;;;;;;12.33;3.60;;;;;;;10.51;59.50;101881.42;113081;1209;64502;-81
2021/03/29 02:14:27;;;;;;;7.75;3.65;;;;;;;10.50;59.52;101882.42;113207;1209;64409;-82
2021/03/29 02:16:57;;;;;;;11.97;3.30;;;;;;;10.49;59.53;101882.55;113150;1209;64320;-81
2021/03/29 02:19:25;;;;;;;11.30;3.17;;;;;;;10.45;59.75;101884.66;113151;1209;64380;-80
2021/03/29 02:21:54;;;;;;;7.35;3.55;;;;;;;10.44;59.83;101874.21;113228;1209;64524;-82
2021/03/29 02:24:22;;;;;;;10.70;3.90;;;;;;;10.41;59.46;101880.62;113177;1209;64384;-80
2021/03/29 02:26:49;;;;;;;9.43;3.73;;;;;;;10.40;59.79;101873.66;113373;1209;64391;-80
2021/03/29 02:29:19;;;;;;;12.45;4.35;;;;;;;10.39;59.76;101871.97;113250;1209;64783;-82
2021/03/29 02:31:49;;;;;;;15.60;5.67;;;;;;;10.35;60.15;101865.31;113164;1209;64416;-79
2021/03/29 02:34:16;;;;;;;9.70;3.87;;;;;;;10.31;60.62;101874.53;113139;1209;64259;-79
2021/03/29 02:36:43;;;;;;;12.00;5.05;;;;;;;10.27;60.36;101867.81;113093;1209;64403;-81
2021/03/29 02:39:10;;;;;;;13.67;4.33;;;;;;;10.27;59.53;101883.72;113449;1209;65604;-81
2021/03/29 02:41:37;;;;;;;11.13;4.30;;;;;;;10.26;60.07;101874.08;113200;1209;64387;-80
2021/03/29 02:44:05;;;;;;;18.95;4.75;;;;;;;10.21;60.26;101869.21;113324;1209;64502;-81
2021/03/29 02:46:32;;;;;;;12.40;3.50;;;;;;;10.15;59.94;101865.30;113180;1209;64816;-82
2021/03/29 02:49:04;;;;;;;15.67;3.60;;;;;;;10.10;60.33;101867.56;112984;1209;64278;-79
2021/03/29 02:51:32;;;;;;;12.97;4.17;;;;;;;10.08;60.51;101879.30;113213;1209;64362;-80
2021/03/29 02:54:02;;;;;;;12.00;4.47;;;;;;;10.08;60.30;101880.13;113257;1209;64404;-79
2021/03/29 02:56:38;;;;;;;6.17;3.60;;;;;;;10.11;59.34;101895.73;113398;1209;64323;-80
2021/03/29 02:59:09;;;;;;;12.50;5.40;;;;;;;10.13;59.03;101899.08;113118;1209;64330;-80
2021/03/29 03:01:39;;;;;;;5.95;3.00;;;;;;;10.14;59.36;101887.52;113332;1209;64752;-80
2021/03/29 03:04:12;;;;;;;6.40;2.90;;;;;;;10.16;58.75;101884.72;113197;1209;64468;-78
2021/03/29 03:06:39;;;;;;;5.83;2.60;;;;;;;10.15;58.66;101894.47;113199;1209;64343;-79
2021/03/29 03:09:08;;;;;;;10.35;3.70;;;;;;;10.14;58.30;101902.59;112954;1209;64368;-80
2021/03/29 03:11:35;;;;;;;6.40;2.77;;;;;;;10.11;59.16;101911.64;113464;1209;64394;-82
2021/03/29 03:14:07;;;;;;;13.30;3.90;;;;;;;10.10;59.09;101898.55;113251;1209;64442;-80
2021/03/29 03:16:38;;;;;;;8.07;2.30;;;;;;;10.02;59.38;101907.20;113467;1209;64378;-81
2021/03/29 03:19:06;;;;;;;8.20;2.90;;;;;;;9.96;59.50;101902.45;113317;1209;64371;-81
2021/03/29 03:21:37;;;;;;;6.07;2.60;;;;;;;9.93;58.62;101903.58;113103;1208;64391;-81
2021/03/29 03:24:04;;;;;;;14.33;5.10;;;;;;;9.92;59.28;101903.72;113164;1209;64378;-79
2021/03/29 03:26:31;;;;;;;9.97;3.70;;;;;;;9.89;59.58;101907.49;113218;1209;64355;-80
2021/03/29 03:28:59;;;;;;;9.30;3.20;;;;;;;9.87;59.19;101898.02;113189;1209;64892;-81
2021/03/29 03:31:26;;;;;;;6.53;2.37;;;;;;;9.85;59.32;101902.62;113257;1209;64428;-80
2021/03/29 03:33:54;;;;;;;7.53;2.90;;;;;;;9.83;59.60;101902.75;113212;1209;64352;-80
2021/03/29 03:36:25;;;;;;;16.10;3.65;;;;;;;9.81;59.73;101899.41;113373;1209;64706;-81
2021/03/29 03:38:52;;;;;;;9.83;2.90;;;;;;;9.80;59.89;101887.14;113165;1209;64368;-81
2021/03/29 03:41:39;;;;;;;11.53;2.77;;;;;;;9.78;59.19;101897.05;113225;1209;64450;-79
2021/03/29 03:44:07;;;;;;;7.20;2.30;;;;;;;9.81;58.85;101888.80;113156;1209;64345;-79
2021/03/29 03:46:41;;;;;;;5.10;2.33;;;;;;;9.84;58.54;101896.48;113177;1209;64307;-80
2021/03/29 03:49:22;;;;;;;10.47;3.13;;;;;;;9.89;58.32;101885.45;113114;1209;64416;-80
2021/03/29 03:51:50;;;;;;;8.37;3.03;;;;;;;9.89;58.10;101888.11;113232;1209;64381;-81
2021/03/29 03:54:21;;;;;;;10.13;3.37;;;;;;;9.89;58.11;101874.86;113245;1209;64376;-80
2021/03/29 03:57:08;;;;;;;8.10;2.37;;;;;;;9.89;58.10;101883.64;113417;1209;64841;-79
2021/03/29 03:59:35;;;;;;;10.80;2.50;;;;;;;9.90;57.12;101884.47;112857;1212;64361;-81
2021/03/29 04:02:05;;;;;;;6.13;2.40;;;;;;;9.90;57.54;101887.98;112866;1212;64400;-81
2021/03/29 04:04:34;;;;;;;10.00;2.80;;;;;;;9.89;57.52;101882.81;113209;1212;64394;-81
2021/03/29 04:07:01;;;;;;;7.77;2.10;;;;;;;9.87;57.77;101876.81;113083;1212;64368;-81
2021/03/29 04:09:43;;;;;;;6.65;2.15;;;;;;;9.86;57.34;101893.67;112779;1212;65938;-81
2021/03/29 04:12:11;;;;;;;7.20;3.50;;;;;;;9.84;58.10;101887.67;112894;1212;64319;-81
2021/03/29 04:14:39;;;;;;;6.30;3.20;;;;;;;9.82;58.08;101889.63;112854;1212;64474;-81
2021/03/29 04:17:06;;;;;;;11.00;3.43;;;;;;;9.82;57.59;101876.38;112749;1212;64391;-81
2021/03/29 04:19:34;;;;;;;8.40;2.80;;;;;;;9.81;57.76;101888.80;112839;1212;64531;-80
2021/03/29 04:22:02;;;;;;;6.95;2.90;;;;;;;9.79;57.86;101886.28;112812;1212;64601;-80
2021/03/29 04:24:28;;;;;;;11.50;2.53;;;;;;;9.76;57.65;101878.63;112833;1212;64485;-81
2021/03/29 04:26:55;;;;;;;7.43;2.43;;;;;;;9.76;57.85;101872.50;113029;1211;64516;-81
2021/03/29 04:29:21;;;;;;;6.73;2.60;;;;;;;9.76;57.81;101864.55;112968;1212;64380;-81
2021/03/29 04:31:48;;;;;;;6.57;2.13;;;;;;;9.76;57.61;101864.55;113281;1209;64404;-81
2021/03/29 04:34:15;;;;;;;5.97;2.10;;;;;;;9.74;57.84;101877.10;113458;1209;64706;-83
2021/03/29 04:36:41;;;;;;;10.67;3.07;;;;;;;9.74;57.54;101877.93;113752;1209;64326;-82
2021/03/29 04:39:08;;;;;;;8.73;2.20;;;;;;;9.73;57.65;101870.97;113438;1209;64422;-82
2021/03/29 04:41:35;;;;;;;7.13;2.60;;;;;;;9.77;57.68;101861.73;113252;1209;64365;-82
2021/03/29 04:44:01;;;;;;;6.87;2.60;;;;;;;9.80;57.40;101855.34;113270;1209;64406;-81
2021/03/29 04:46:28;;;;;;;9.50;2.40;;;;;;;9.80;57.80;101852.70;113209;1209;64358;-81
2021/03/29 04:48:54;;;;;;;10.03;3.07;;;;;;;9.81;57.30;101867.59;113674;1209;64397;-79
2021/03/29 04:51:23;;;;;;;10.13;2.80;;;;;;;9.85;56.91;101873.47;113243;1209;64464;-80
2021/03/29 04:53:50;;;;;;;10.00;2.60;;;;;;;9.90;57.04;101876.52;113151;1209;64371;-81
2021/03/29 04:56:17;;;;;;;10.87;3.27;;;;;;;9.94;57.00;101862.00;113203;1209;64438;-80
2021/03/29 04:58:43;;;;;;;8.77;2.77;;;;;;;9.98;56.71;101868.70;113167;1209;64451;-80
2021/03/29 05:01:10;;;;;;;9.70;3.50;;;;;;;10.00;57.46;101880.00;113309;1209;64362;-80
2021/03/29 05:03:36;;;;;;;6.03;2.03;;;;;;;10.03;56.59;101879.73;113331;1209;64313;-80
2021/03/29 05:06:03;;;;;;;6.30;2.30;;;;;;;10.07;57.04;101880.26;113265;1209;64419;-81
2021/03/29 05:08:29;;;;;;;8.90;2.23;;;;;;;10.09;57.02;101880.95;113227;1209;64403;-79
2021/03/29 05:10:56;;;;;;;10.20;2.60;;;;;;;10.10;56.71;101878.17;113232;1209;64348;-81
2021/03/29 05:13:23;;;;;;;7.83;2.80;;;;;;;10.15;56.06;101881.21;113246;1209;64355;-81
2021/03/29 05:15:50;;;;;;;8.83;2.17;;;;;;;10.18;56.25;101880.95;113217;1209;64435;-80
2021/03/29 05:18:22;;;;;;;5.17;2.20;;;;;;;10.19;56.30;101876.47;113176;1209;64339;-80
2021/03/29 05:20:49;;;;;;;5.93;2.20;;;;;;;10.20;56.83;101878.16;113216;1209;64400;-80
2021/03/29 05:23:15;;;;;;;6.90;2.07;;;;;;;10.21;56.52;101877.99;113301;1209;64422;-80
2021/03/29 05:25:42;;;;;;;4.77;2.17;;;;;;;10.24;56.68;101883.99;113204;1209;64381;-81
2021/03/29 05:28:09;;;;;;;3.50;2.20;;;;;;;10.26;56.32;101882.03;113174;1209;64470;-81
2021/03/29 05:30:35;;;;;;;8.30;2.60;;;;;;;10.28;56.56;101883.55;113218;1209;64421;-80
2021/03/29 05:33:02;;;;;;;4.63;1.33;;;;;;;10.31;56.74;101891.27;113132;1209;64355;-80
2021/03/29 05:35:29;;;;;;;4.03;1.63;;;;;;;10.34;55.85;101887.48;113181;1209;64473;-80
2021/03/29 05:37:56;;;;;;;9.15;4.25;;;;;;;10.37;55.47;101889.84;113179;1209;64342;-79
2021/03/29 05:40:23;;;;;;;10.27;2.30;;;;;;;10.42;55.59;101892.91;112902;1209;64579;-79
2021/03/29 05:42:51;;;;;;;6.00;2.30;;;;;;;10.45;55.62;101889.96;113114;1209;64374;-78
2021/03/29 05:45:18;;;;;;;12.40;2.47;;;;;;;10.47;56.19;101889.83;113254;1209;64403;-79
2021/03/29 05:47:45;;;;;;;8.80;2.03;;;;;;;10.48;55.79;101902.95;113044;1209;64570;-78
2021/03/29 05:50:16;;;;;;;6.17;1.90;;;;;;;10.48;55.48;101894.99;113070;1209;64327;-78
2021/03/29 05:52:43;;;;;;;10.50;2.30;;;;;;;10.51;56.40;101910.61;115989;1209;62106;-79
2021/03/29 05:55:18;;;;;;;8.50;1.85;;;;;;;10.52;55.75;101909.64;113472;1209;64380;-77
2021/03/29 06:00:37;;;;;;;9.17;2.50;;;;;;;10.58;55.72;101902.91;112987;1209;64358;-78
2021/03/29 06:03:23;;;;;;;5.50;1.45;;;;;;;10.60;55.28;101907.11;112964;1209;64314;-78
2021/03/29 06:05:59;;;;;;;10.15;2.30;;;;;;;10.65;55.41;101913.77;113147;1209;64451;-78
2021/03/29 06:08:26;;;;;;;;;;;;;;;10.68;54.79;101913.49;112888;1217;64688;-78
2021/03/29 06:10:55;;;;;;;9.63;3.57;;;;;;;10.72;54.73;101915.70;113033;1209;64866;-78
2021/03/29 06:13:30;;;;;;;4.60;1.60;;;;;;;10.76;54.83;101916.26;113070;1209;64413;-78
2021/03/29 06:16:10;;;;;;;8.95;2.95;;;;;;;10.80;54.86;101912.33;113139;1209;64356;-77
2021/03/29 06:18:38;;;;;;;5.37;1.80;;;;;;;10.83;54.62;101906.72;113410;1209;64394;-78
2021/03/29 06:21:11;;;;;;;5.77;2.20;;;;;;;10.86;54.64;101916.20;113269;1209;64394;-78
2021/03/29 06:23:41;;;;;;;7.15;2.30;;;;;;;10.84;54.29;101913.72;113109;1209;64457;-77
2021/03/29 06:26:22;;;;;;;6.10;1.87;;;;;;;10.86;54.85;101909.09;113055;1209;64304;-77
2021/03/29 06:28:50;;;;;;;5.10;1.63;;;;;;;10.87;54.71;101918.72;113198;1209;64375;-78
2021/03/29 06:31:19;;;;;;;7.43;1.60;;;;;;;10.89;55.41;101916.75;113202;1209;64506;-77
2021/03/29 06:33:51;;;;;;;5.37;1.60;;;;;;;10.92;55.03;101919.13;113312;1209;64480;-78
2021/03/29 06:36:38;;;;;;;7.00;1.77;;;;;;;10.96;54.11;101923.13;113169;1209;64371;-79
2021/03/29 06:39:23;;;;;;;6.37;1.80;;;;;;;11.04;54.50;101926.89;113162;1209;64402;-79
2021/03/29 06:41:54;;;;;;;6.70;2.00;;;;;;;11.12;54.42;101937.61;113178;1209;64358;-79
2021/03/29 06:44:30;;;;;;;7.33;2.00;;;;;;;11.20;53.96;101930.58;113324;1209;64333;-79
2021/03/29 06:47:14;;;;;;;6.10;2.00;;;;;;;11.26;54.79;101939.75;113261;1209;64400;-77
2021/03/29 06:49:47;;;;;;;7.00;1.60;;;;;;;11.31;53.90;101940.16;113166;1209;64378;-78
2021/03/29 06:52:22;;;;;;;3.60;1.37;;;;;;;11.34;54.09;101939.84;113185;1209;64493;-78
2021/03/29 06:54:49;;;;;;;5.27;1.60;;;;;;;11.39;54.04;101940.25;113198;1209;64384;-78
2021/03/29 06:57:29;;;;;;;6.85;1.70;;;;;;;11.47;54.26;101942.14;113085;1209;64352;-78
2021/03/29 06:59:56;;;;;;;9.73;2.07;;;;;;;11.54;53.44;101958.31;113099;1209;64384;-77
2021/03/29 07:02:42;;;;;;;10.13;1.90;;;;;;;11.61;53.42;101938.97;113179;1209;64375;-76
2021/03/29 07:05:10;;;;;;;5.57;1.80;;;;;;;11.71;53.47;101954.00;113302;1209;64317;-79
2021/03/29 07:07:39;;;;;;;6.87;1.67;;;;;;;11.78;53.63;101934.64;113223;1209;64349;-80
2021/03/29 07:10:10;;;;;;;6.93;1.70;;;;;;;11.89;53.21;101946.06;113571;1209;64444;-78
2021/03/29 07:12:42;;;;;;;11.20;2.17;;;;;;;11.97;52.83;101951.46;113326;1209;64362;-78
2021/03/29 07:15:11;;;;;;;8.75;1.70;;;;;;;12.04;53.07;101947.19;113401;1209;64356;-79
2021/03/29 07:17:40;;;;;;;7.40;1.80;;;;;;;12.11;52.97;101947.41;113353;1209;64384;-78
2021/03/29 07:20:13;;;;;;;4.93;1.73;;;;;;;12.16;53.33;101953.94;113082;1209;64731;-77
2021/03/29 07:22:43;;;;;;;6.50;2.05;;;;;;;12.17;52.57;101960.09;113226;1209;64502;-76
2021/03/29 07:25:14;;;;;;;6.13;1.77;;;;;;;12.20;53.16;101963.28;112983;1209;64364;-77
2021/03/29 07:27:53;;;;;;;4.37;1.67;;;;;;;12.21;52.60;101962.28;113135;1209;64429;-76
2021/03/29 07:30:47;;;;;;;7.03;2.47;;;;;;;12.22;52.63;101971.13;113007;1209;64423;-77
2021/03/29 07:33:16;;;;;;;4.27;1.50;;;;;;;12.26;52.75;101963.64;113050;1209;64464;-76
2021/03/29 07:35:54;;;;;;;5.65;2.20;;;;;;;12.29;52.53;101958.03;113149;1209;64416;-76
2021/03/29 07:38:26;;;;;;;5.95;2.50;;;;;;;12.35;52.32;101968.06;113229;1209;64448;-76
2021/03/29 07:40:56;;;;;;;4.87;1.73;;;;;;;12.40;52.95;101968.41;113067;1209;64429;-77
2021/03/29 07:43:26;;;;;;;5.87;2.27;;;;;;;12.43;53.09;101965.42;113065;1209;64380;-77
2021/03/29 07:46:03;;;;;;;7.67;2.23;;;;;;;12.39;52.51;101972.08;113383;1209;64445;-77
2021/03/29 07:48:44;;;;;;;6.30;2.00;;;;;;;12.39;53.11;101969.42;113388;1209;64502;-76
2021/03/29 07:51:13;;;;;;;9.47;2.40;;;;;;;12.44;53.14;101961.79;113289;1209;64384;-78
2021/03/29 07:53:42;;;;;;;7.13;2.77;;;;;;;12.55;53.15;101968.68;113412;1209;64311;-75
2021/03/29 07:56:10;;;;;;;8.20;1.90;;;;;;;12.68;53.46;101962.94;113548;1209;64789;-77
2021/03/29 07:58:47;;;;;;;6.67;2.03;;;;;;;12.74;53.04;101967.63;113256;1209;64400;-77
2021/03/29 08:01:16;;;;;;;7.70;2.70;;;;;;;12.72;53.09;101964.29;113010;1209;64333;-77
2021/03/29 08:03:47;;;;;;;6.90;2.30;;;;;;;12.74;52.94;101967.63;113226;1209;64474;-78
2021/03/29 08:06:36;;;;;;;7.00;2.13;;;;;;;12.73;51.48;101971.27;113099;1209;64301;-76
2021/03/29 08:09:05;;;;;;;5.47;1.70;;;;;;;12.73;52.31;101965.95;113051;1209;64860;-77
2021/03/29 08:11:55;;;;;;;6.55;1.70;;;;;;;12.80;51.93;101974.99;113259;1209;64317;-77
2021/03/29 08:14:32;;;;;;;6.08;1.78;;;;;;;12.91;52.28;101968.55;112932;1209;64383;-77
2021/03/29 08:17:18;;;;;;;8.47;4.13;;;;;;;13.00;52.01;101965.75;112940;1209;64844;-77
2021/03/29 08:20:08;;;;;;;3.57;1.77;;;;;;;13.16;51.07;101977.50;112988;1209;64310;-77
2021/03/29 08:22:36;;;;;;;6.33;2.00;;;;;;;13.29;51.24;101969.91;113112;1209;64381;-78
2021/03/29 08:25:03;;;;;;;4.27;2.00;;;;;;;13.40;51.24;101972.27;113107;1209;64473;-79
2021/03/29 08:27:31;;;;;;;8.85;1.95;;;;;;;13.48;51.23;101982.13;113159;1209;64410;-78
2021/03/29 08:30:15;;;;;;;11.00;1.70;;;;;;;13.61;49.73;101976.33;113184;1209;64387;-76
2021/03/29 08:32:43;;;;;;;4.97;1.87;;;;;;;13.77;49.99;101987.03;113440;1209;64413;-76
2021/03/29 08:35:11;;;;;;;11.77;2.57;;;;;;;13.89;50.27;101978.70;112921;1209;64307;-77
2021/03/29 08:37:42;;;;;;;7.40;1.57;;;;;;;13.99;48.56;101974.05;113004;1209;64378;-77
2021/03/29 08:40:20;;;;;;;5.73;1.80;;;;;;;14.09;47.79;101969.39;113059;1209;64383;-77
2021/03/29 08:42:52;;;;;;;5.00;1.40;;;;;;;14.11;46.85;101967.39;113069;1209;64572;-77
2021/03/29 08:45:24;;;;;;;4.20;1.05;;;;;;;14.17;47.43;101977.36;113156;1209;64687;-78
2021/03/29 08:47:54;;;;;;;7.83;2.33;;;;;;;14.28;47.45;101976.22;113126;1209;64371;-76
2021/03/29 08:50:24;;;;;;;4.30;1.70;;;;;;;14.38;47.34;101970.69;113059;1209;65452;-76
2021/03/29 08:52:51;;;;;;;8.20;1.70;;;;;;;14.44;46.81;101988.70;113306;1209;64403;-77
2021/03/29 08:55:24;;;;;;;11.20;2.65;;;;;;;14.54;47.26;101976.01;113129;1209;65637;-76
2021/03/29 08:57:55;;;;;;;3.77;1.43;;;;;;;14.58;45.98;101996.06;116015;1209;62552;-77
2021/03/29 09:00:25;;;;;;;6.20;2.67;;;;;;;14.60;45.96;101977.18;115186;1209;64301;-76
2021/03/29 09:02:52;;;;;;;6.73;1.77;;;;;;;14.72;46.68;101985.68;113065;1209;64381;-76
2021/03/29 09:05:21;;;;;;;5.70;1.50;;;;;;;14.82;46.00;101983.66;112918;1209;64378;-76
2021/03/29 09:07:49;;;;;;;3.63;2.17;;;;;;;14.94;44.56;101984.97;112935;1209;65583;-76
2021/03/29 09:10:25;;;;;;;5.63;2.30;;;;;;;14.98;43.70;101991.63;113123;1209;64381;-77
2021/03/29 09:13:03;;;;;;;4.77;1.77;;;;;;;15.03;43.07;101983.09;113001;1209;64371;-77
2021/03/29 09:15:38;;;;;;;4.40;1.50;;;;;;;15.08;43.33;101986.89;113038;1209;64799;-77
2021/03/29 09:18:09;;;;;;;6.40;2.07;;;;;;;15.17;44.29;101989.53;112974;1209;64397;-77
2021/03/29 09:20:45;;;;;;;4.13;1.20;;;;;;;15.20;41.55;101994.55;113016;1209;64375;-77
2021/03/29 09:23:14;;;;;;;6.10;1.30;;;;;;;15.25;41.48;101993.00;112884;1209;65520;-77
2021/03/29 09:25:44;;;;;;;2.73;1.10;;;;;;;15.27;41.58;101985.64;112984;1209;64464;-77
2021/03/29 09:28:31;;;;;;;5.53;1.50;;;;;;;15.35;42.82;102000.83;113148;1209;64384;-76
2021/03/29 09:31:19;;;;;;;3.23;1.03;;;;;;;15.43;41.94;101994.61;112971;1209;64474;-79
2021/03/29 09:33:47;;;;;;;3.60;1.23;;;;;;;15.52;41.28;102008.77;113033;1209;64415;-77
2021/03/29 09:36:17;;;;;;;6.70;1.90;;;;;;;15.58;41.75;101997.38;112945;1209;64899;-75
2021/03/29 09:38:52;;;;;;;5.80;1.60;;;;;;;15.66;40.80;102010.67;113091;1209;64365;-76
2021/03/29 09:41:22;;;;;;;7.38;1.63;;;;;;;15.70;40.50;102025.37;112969;1209;64346;-76
2021/03/29 09:43:52;;;;;;;5.80;1.65;;;;;;;15.72;40.73;102004.66;112961;1209;64322;-76
2021/03/29 09:46:27;;;;;;;4.60;1.53;;;;;;;15.71;40.89;102008.33;113212;1209;64448;-76
2021/03/29 09:49:11;;;;;;;3.17;1.50;;;;;;;15.70;40.60;102002.15;113007;1209;64381;-76
2021/03/29 09:51:39;;;;;;;6.03;1.43;;;;;;;15.73;40.56;102002.84;113133;1209;64317;-76
2021/03/29 09:54:32;;;;;;;5.63;1.40;;;;;;;15.83;40.83;102012.30;112983;1209;65582;-76
2021/03/29 09:57:17;;;;;;;4.93;1.50;;;;;;;15.92;39.77;101993.48;112898;1209;65346;-76
2021/03/29 09:59:45;;;;;;;5.75;1.55;;;;;;;15.97;40.30;101999.15;112914;1209;64971;-76
2021/03/29 10:02:17;;;;;;;4.50;1.23;;;;;;;16.05;38.96;102010.63;113005;1209;64381;-77
2021/03/29 10:04:46;;;;;;;2.80;1.10;;;;;;;16.16;39.68;101995.98;113073;1209;64381;-77
2021/03/29 10:07:16;;;;;;;6.10;1.30;;;;;;;16.27;39.95;101997.39;113116;1209;64467;-77
2021/03/29 10:09:47;;;;;;;8.73;2.00;;;;;;;16.43;39.77;102001.79;113074;1209;64508;-76
2021/03/29 10:12:25;;;;;;;4.43;1.27;;;;;;;16.52;39.87;102008.72;112854;1209;64365;-78
2021/03/29 10:15:08;;;;;;;9.10;1.70;;;;;;;16.55;37.70;102002.98;113153;1209;64891;-78
2021/03/29 10:17:35;;;;;;;4.83;1.87;;;;;;;16.61;38.37;102007.62;113018;1209;64395;-78
2021/03/29 10:20:14;;;;;;;4.77;2.20;;;;;;;16.68;36.89;102027.33;112979;1209;64374;-77
2021/03/29 10:22:41;;;;;;;7.40;1.40;;;;;;;16.70;37.80;102027.98;113307;1209;64368;-78
2021/03/29 10:25:14;;;;;;;5.17;1.40;;;;;;;16.77;37.66;102003.13;113054;1209;64416;-78
2021/03/29 10:27:54;;;;;;;7.38;1.78;;;;;;;16.83;36.57;102023.84;113053;1209;64394;-76
2021/03/29 10:30:20;;;;;;;3.90;1.15;;;;;;;16.90;36.94;101997.98;112995;1209;64409;-76
2021/03/29 10:32:48;;;;;;;5.13;2.07;;;;;;;16.94;37.18;102001.10;113011;1209;64419;-76
2021/03/29 10:35:16;;;;;;;3.67;1.47;;;;;;;17.01;38.51;101988.64;114636;1209;64547;-77
2021/03/29 10:37:43;;;;;;;3.27;1.30;;;;;;;17.06;38.19;102003.13;113009;1209;64351;-76
2021/03/29 10:40:11;;;;;;;3.60;1.30;;;;;;;17.15;35.90;102011.94;113061;1209;64409;-77
2021/03/29 10:42:40;;;;;;;6.03;1.73;;;;;;;17.20;35.57;102008.69;113153;1209;64576;-77
2021/03/29 10:45:15;;;;;;;9.03;2.30;;;;;;;17.27;36.32;101978.23;114076;1209;64320;-76
2021/03/29 10:47:44;;;;;;;5.30;1.30;;;;;;;17.32;35.64;101999.98;113188;1209;64400;-78
2021/03/29 10:50:15;;;;;;;3.20;1.30;;;;;;;17.38;36.41;102006.42;113083;1209;65231;-76
2021/03/29 10:52:41;;;;;;;6.13;1.60;;;;;;;17.38;37.40;102010.96;113027;1209;64449;-78
2021/03/29 10:55:09;;;;;;;4.15;1.60;;;;;;;17.46;38.65;102019.73;113093;1209;64356;-77
2021/03/29 10:57:36;;;;;;;5.07;1.60;;;;;;;17.57;38.43;102014.91;112737;1209;64477;-76
2021/03/29 11:00:05;;;;;;;6.97;1.73;;;;;;;17.65;37.05;102001.38;112907;1209;64512;-75
2021/03/29 11:02:32;;;;;;;3.83;1.43;;;;;;;17.72;37.35;102013.86;113807;1209;64495;-77
2021/03/29 11:04:59;;;;;;;5.43;1.80;;;;;;;17.82;37.30;102005.50;112996;1209;65450;-76
2021/03/29 11:07:25;;;;;;;4.30;1.07;;;;;;;17.82;35.95;102010.02;112897;1209;64528;-78
2021/03/29 11:09:58;;;;;;;4.23;1.40;;;;;;;17.84;36.79;101997.27;113130;1209;64400;-78
2021/03/29 11:12:27;;;;;;;2.10;1.00;;;;;;;17.85;35.88;102007.83;113335;1209;65126;-77
2021/03/29 11:14:54;;;;;;;4.77;1.60;;;;;;;17.87;35.84;102005.78;112948;1209;64413;-77
2021/03/29 11:17:24;;;;;;;6.83;1.50;;;;;;;17.85;35.56;101991.72;113063;1209;64381;-77
2021/03/29 11:19:51;;;;;;;6.03;1.80;;;;;;;17.89;35.85;101998.37;113051;1209;64409;-77
2021/03/29 11:22:18;;;;;;;3.65;1.45;;;;;;;17.95;35.88;101991.38;113083;1209;65460;-78
2021/03/29 11:24:44;;;;;;;5.53;1.73;;;;;;;18.10;36.81;101994.00;112958;1209;64530;-78
2021/03/29 11:27:11;;;;;;;6.90;2.00;;;;;;;18.20;35.60;102005.25;112949;1209;64384;-77
2021/03/29 11:29:38;;;;;;;4.20;1.70;;;;;;;18.25;35.58;102002.80;112964;1209;64320;-76
2021/03/29 11:32:05;;;;;;;6.55;1.65;;;;;;;18.27;35.19;102008.80;113056;1209;64378;-79
2021/03/29 11:34:32;;;;;;;4.00;1.50;;;;;;;18.35;34.67;102010.53;113014;1209;64372;-77
2021/03/29 11:36:58;;;;;;;6.40;1.80;;;;;;;18.42;35.45;102007.90;113050;1209;64439;-79